createdAt,value
2023-02-03T00:01:37.158Z,100.00
2023-02-03T00:04:05.238Z,100.00
2023-02-03T00:06:32.674Z,100.00
2023-02-03T00:09:01.699Z,100.00
2023-02-03T00:11:31.627Z,100.00
2023-02-03T00:13:58.426Z,100.00
2023-02-03T00:16:24.978Z,100.00
2023-02-03T00:18:51.770Z,100.00
2023-02-03T00:21:18.272Z,100.00
2023-02-03T00:23:44.731Z,100.00
2023-02-03T00:26:13.662Z,100.00
2023-02-03T00:28:42.701Z,100.00
2023-02-03T00:31:21.491Z,100.00
2023-02-03T00:33:48.770Z,100.00
2023-02-03T00:36:17.190Z,100.00
2023-02-03T00:38:43.680Z,100.00
2023-02-03T00:41:10.313Z,100.00
2023-02-03T00:43:36.768Z,100.00
2023-02-03T00:46:03.419Z,100.00
2023-02-03T00:48:29.989Z,100.00
2023-02-03T00:50:57.021Z,100.00
2023-02-03T00:53:25.366Z,100.00
2023-02-03T00:55:52.098Z,100.00
2023-02-03T00:58:19.771Z,100.00
2023-02-03T01:00:46.387Z,100.00
2023-02-03T01:03:13.029Z,100.00
2023-02-03T01:05:41.144Z,100.00
2023-02-03T01:08:07.708Z,100.00
2023-02-03T01:10:34.146Z,100.00
2023-02-03T01:13:00.700Z,100.00
2023-02-03T01:15:28.148Z,100.00
2023-02-03T01:17:54.949Z,100.00
2023-02-03T01:20:21.641Z,100.00
2023-02-03T01:22:48.860Z,100.00
2023-02-03T01:25:15.439Z,100.00
2023-02-03T01:27:41.971Z,100.00
2023-02-03T01:30:09.149Z,100.00
2023-02-03T01:32:35.621Z,100.00
2023-02-03T01:35:04.264Z,100.00
2023-02-03T01:37:30.954Z,100.00
2023-02-03T01:39:57.775Z,100.00
2023-02-03T01:42:24.296Z,100.00
2023-02-03T01:44:52.433Z,100.00
2023-02-03T01:47:27.888Z,100.00
2023-02-03T01:49:59.506Z,100.00
2023-02-03T01:52:27.522Z,100.00
2023-02-03T01:54:56.852Z,100.00
2023-02-03T01:57:30.142Z,100.00
2023-02-03T01:59:59.136Z,100.00
2023-02-03T02:02:27.894Z,100.00
2023-02-03T02:05:06.475Z,100.00
2023-02-03T02:07:34.353Z,100.00
2023-02-03T02:10:02.205Z,100.00
2023-02-03T02:12:28.655Z,100.00
2023-02-03T02:14:55.826Z,100.00
2023-02-03T02:17:36.583Z,100.00
2023-02-03T02:20:25.183Z,100.00
2023-02-03T02:23:00.301Z,100.00
2023-02-03T02:26:08.223Z,100.00
2023-02-03T02:29:20.415Z,100.00
2023-02-03T02:32:03.401Z,100.00
2023-02-03T02:35:01.765Z,100.00
2023-02-03T02:37:49.120Z,100.00
2023-02-03T02:40:36.025Z,100.00
2023-02-03T02:43:47.086Z,100.00
2023-02-03T02:46:19.349Z,100.00
2023-02-03T02:48:57.347Z,100.00
2023-02-03T02:51:24.429Z,100.00
2023-02-03T02:53:57.886Z,100.00
2023-02-03T02:56:25.922Z,100.00
2023-02-03T02:58:56.085Z,100.00
2023-02-03T03:01:22.717Z,100.00
2023-02-03T03:03:49.332Z,100.00
2023-02-03T03:06:48.297Z,100.00
2023-02-03T03:09:39.435Z,100.00
2023-02-03T03:12:16.900Z,100.00
2023-02-03T03:14:48.985Z,100.00
2023-02-03T03:17:23.940Z,100.00
2023-02-03T03:19:56.281Z,100.00
2023-02-03T03:22:30.574Z,100.00
2023-02-03T03:25:06.318Z,100.00
2023-02-03T03:27:39.666Z,100.00
2023-02-03T03:30:14.249Z,100.00
2023-02-03T03:32:40.921Z,100.00
2023-02-03T03:35:07.992Z,100.00
2023-02-03T03:37:44.862Z,100.00
2023-02-03T03:40:27.128Z,100.00
2023-02-03T03:43:01.359Z,100.00
2023-02-03T03:45:51.086Z,100.00
2023-02-03T03:48:26.740Z,100.00
2023-02-03T03:50:59.243Z,100.00
2023-02-03T03:53:28.854Z,100.00
2023-02-03T03:55:58.040Z,100.00
2023-02-03T03:58:28.366Z,100.00
2023-02-03T04:01:00.547Z,100.00
2023-02-03T04:03:39.692Z,100.00
2023-02-03T04:06:06.700Z,100.00
2023-02-03T04:08:33.242Z,100.00
2023-02-03T04:10:59.990Z,100.00
2023-02-03T04:13:26.442Z,100.00
2023-02-03T04:15:53.614Z,100.00
2023-02-03T04:18:20.508Z,100.00
2023-02-03T04:20:46.996Z,100.00
2023-02-03T04:23:13.488Z,100.00
2023-02-03T04:25:39.987Z,100.00
2023-02-03T04:28:06.781Z,100.00
2023-02-03T04:30:33.421Z,100.00
2023-02-03T04:33:00.046Z,100.00
2023-02-03T04:35:26.632Z,100.00
2023-02-03T04:37:53.085Z,100.00
2023-02-03T04:40:19.647Z,100.00
2023-02-03T04:42:46.105Z,100.00
2023-02-03T04:45:12.814Z,100.00
2023-02-03T04:47:39.724Z,100.00
2023-02-03T04:50:06.686Z,100.00
2023-02-03T04:52:33.302Z,100.00
2023-02-03T04:54:59.810Z,100.00
2023-02-03T04:57:26.343Z,100.00
2023-02-03T04:59:52.854Z,100.00
2023-02-03T05:02:19.281Z,100.00
2023-02-03T05:04:45.767Z,100.00
2023-02-03T05:07:12.337Z,100.00
2023-02-03T05:09:38.819Z,100.00
2023-02-03T05:12:05.483Z,100.00
2023-02-03T05:14:32.068Z,100.00
2023-02-03T05:16:58.532Z,100.00
2023-02-03T05:19:25.148Z,100.00
2023-02-03T05:21:51.601Z,100.00
2023-02-03T05:24:18.105Z,100.00
2023-02-03T05:26:44.738Z,100.00
2023-02-03T05:29:12.046Z,100.00
2023-02-03T05:31:38.601Z,100.00
2023-02-03T05:34:05.310Z,100.00
2023-02-03T05:36:31.808Z,100.00
2023-02-03T05:38:58.853Z,100.00
2023-02-03T05:41:44.242Z,100.00
2023-02-03T05:44:10.783Z,100.00
2023-02-03T05:46:37.241Z,100.00
2023-02-03T05:49:03.742Z,100.00
2023-02-03T05:51:30.263Z,100.00
2023-02-03T05:53:56.696Z,100.00
2023-02-03T05:56:23.280Z,100.00
2023-02-03T05:58:53.122Z,100.00
2023-02-03T06:01:19.876Z,99.94
2023-02-03T06:03:47.708Z,100.00
2023-02-03T06:06:14.827Z,99.94
2023-02-03T06:08:41.521Z,99.77
2023-02-03T06:11:08.076Z,99.96
2023-02-03T06:13:34.504Z,99.49
2023-02-03T06:16:01.016Z,100.00
2023-02-03T06:18:27.473Z,100.00
2023-02-03T06:20:54.081Z,99.83
2023-02-03T06:23:20.594Z,100.00
2023-02-03T06:25:51.104Z,100.00
2023-02-03T06:28:18.145Z,100.00
2023-02-03T06:30:45.103Z,100.00
2023-02-03T06:33:11.642Z,100.00
2023-02-03T06:35:38.194Z,100.00
2023-02-03T06:38:04.962Z,100.00
2023-02-03T06:40:31.623Z,100.00
2023-02-03T06:42:58.137Z,100.00
2023-02-03T06:45:25.073Z,100.00
2023-02-03T06:47:51.753Z,100.00
2023-02-03T06:50:18.712Z,100.00
2023-02-03T06:52:45.403Z,100.00
2023-02-03T06:55:11.935Z,100.00
2023-02-03T06:57:46.722Z,100.00
2023-02-03T07:00:18.167Z,100.00
2023-02-03T07:02:45.508Z,100.00
2023-02-03T07:05:12.136Z,100.00
2023-02-03T07:07:39.451Z,100.00
2023-02-03T07:10:06.958Z,100.00
2023-02-03T07:12:33.553Z,100.00
2023-02-03T07:15:00.012Z,100.00
2023-02-03T07:17:26.546Z,100.00
2023-02-03T07:19:52.980Z,100.00
2023-02-03T07:22:19.418Z,100.00
2023-02-03T07:24:45.884Z,100.00
2023-02-03T07:27:12.348Z,100.00
2023-02-03T07:29:38.833Z,100.00
2023-02-03T07:32:05.586Z,100.00
2023-02-03T07:34:32.047Z,100.00
2023-02-03T07:37:00.950Z,100.00
2023-02-03T07:39:27.612Z,100.00
2023-02-03T07:41:54.166Z,100.00
2023-02-03T07:44:22.914Z,100.00
2023-02-03T07:46:49.465Z,100.00
2023-02-03T07:49:16.011Z,100.00
2023-02-03T07:51:42.499Z,100.00
2023-02-03T07:54:09.718Z,100.00
2023-02-03T07:56:36.588Z,100.00
2023-02-03T07:59:03.232Z,100.00
2023-02-03T08:01:31.370Z,100.00
2023-02-03T08:03:57.875Z,100.00
2023-02-03T08:06:25.434Z,100.00
2023-02-03T08:08:51.906Z,100.00
2023-02-03T08:11:18.479Z,100.00
2023-02-03T08:13:45.149Z,100.00
2023-02-03T08:16:11.706Z,100.00
2023-02-03T08:18:38.206Z,100.00
2023-02-03T08:21:04.982Z,100.00
2023-02-03T08:23:33.567Z,100.00
2023-02-03T08:26:00.065Z,100.00
2023-02-03T08:28:26.871Z,100.00
2023-02-03T08:30:53.408Z,100.00
2023-02-03T08:33:19.917Z,100.00
2023-02-03T08:35:48.581Z,100.00
2023-02-03T08:38:15.110Z,100.00
2023-02-03T08:40:41.661Z,100.00
2023-02-03T08:43:08.769Z,100.00
2023-02-03T08:45:35.407Z,100.00
2023-02-03T08:48:01.986Z,100.00
2023-02-03T08:50:28.816Z,100.00
2023-02-03T08:52:55.438Z,100.00
2023-02-03T08:55:21.959Z,100.00
2023-02-03T08:57:48.408Z,100.00
2023-02-03T09:00:15.445Z,100.00
2023-02-03T09:02:42.032Z,100.00
2023-02-03T09:05:09.034Z,100.00
2023-02-03T09:07:37.092Z,100.00
2023-02-03T09:10:03.972Z,100.00
2023-02-03T09:12:30.482Z,100.00
2023-02-03T09:14:56.933Z,100.00
2023-02-03T09:17:23.465Z,100.00
2023-02-03T09:19:49.978Z,100.00
2023-02-03T09:22:16.465Z,100.00
2023-02-03T09:24:43.269Z,100.00
2023-02-03T09:27:09.825Z,100.00
2023-02-03T09:29:36.350Z,100.00
2023-02-03T09:32:07.885Z,100.00
2023-02-03T09:34:34.503Z,100.00
2023-02-03T09:37:01.041Z,100.00
2023-02-03T09:39:27.467Z,100.00
2023-02-03T09:42:25.273Z,100.00
2023-02-03T09:45:06.258Z,100.00
2023-02-03T09:47:37.273Z,100.00
2023-02-03T09:50:07.142Z,100.00
2023-02-03T09:52:39.258Z,100.00
2023-02-03T09:55:16.721Z,100.00
2023-02-03T09:57:51.457Z,100.00
2023-02-03T10:00:48.535Z,100.00
2023-02-03T10:03:25.996Z,100.00
2023-02-03T10:06:13.985Z,100.00
2023-02-03T10:08:48.968Z,100.00
2023-02-03T10:11:55.919Z,100.00
2023-02-03T10:14:54.580Z,100.00
2023-02-03T10:17:38.786Z,100.00
2023-02-03T10:20:21.892Z,100.00
2023-02-03T10:22:55.991Z,100.00
2023-02-03T10:25:33.742Z,100.00
2023-02-03T10:28:04.963Z,100.00
2023-02-03T10:30:45.486Z,100.00
2023-02-03T10:33:14.793Z,100.00
2023-02-03T10:35:54.228Z,100.00
2023-02-03T10:38:35.676Z,100.00
2023-02-03T10:41:03.320Z,100.00
2023-02-03T10:43:47.660Z,100.00
2023-02-03T10:46:35.900Z,100.00
2023-02-03T10:49:02.491Z,100.00
2023-02-03T10:51:43.081Z,100.00
2023-02-03T10:54:30.465Z,100.00
2023-02-03T10:57:03.991Z,100.00
2023-02-03T10:59:35.003Z,100.00
2023-02-03T11:02:08.732Z,100.00
2023-02-03T11:04:36.072Z,100.00
2023-02-03T11:07:06.210Z,100.00
2023-02-03T11:09:42.005Z,100.00
2023-02-03T11:12:16.184Z,100.00
2023-02-03T11:14:45.490Z,100.00
2023-02-03T11:17:17.899Z,100.00
2023-02-03T11:19:47.487Z,100.00
2023-02-03T11:22:28.795Z,100.00
2023-02-03T11:24:56.280Z,100.00
2023-02-03T11:27:24.940Z,100.00
2023-02-03T11:30:10.475Z,100.00
2023-02-03T11:32:42.067Z,100.00
2023-02-03T11:35:23.608Z,100.00
2023-02-03T11:37:52.973Z,100.00
2023-02-03T11:40:31.014Z,100.00
2023-02-03T11:42:57.726Z,100.00
2023-02-03T11:45:25.638Z,100.00
2023-02-03T11:48:18.468Z,100.00
2023-02-03T11:50:55.426Z,100.00
2023-02-03T11:53:47.862Z,99.28
2023-02-03T11:56:30.713Z,96.53
2023-02-03T11:59:22.245Z,95.02
2023-02-03T12:02:13.287Z,94.25
2023-02-03T12:05:03.479Z,94.02
2023-02-03T12:07:48.542Z,92.42
2023-02-03T12:10:33.708Z,91.79
2023-02-03T12:13:18.442Z,93.73
2023-02-03T12:16:02.771Z,92.91
2023-02-03T12:19:00.119Z,91.03
2023-02-03T12:21:29.638Z,90.95
2023-02-03T12:24:19.504Z,97.24
2023-02-03T12:27:28.737Z,96.58
2023-02-03T12:30:01.848Z,94.81
2023-02-03T12:32:36.538Z,92.36
2023-02-03T12:35:23.178Z,92.16
2023-02-03T12:38:02.932Z,89.99
2023-02-03T12:40:36.166Z,90.33
2023-02-03T12:43:37.424Z,87.23
2023-02-03T12:46:15.674Z,83.00
2023-02-03T12:49:09.022Z,82.73
2023-02-03T12:51:42.616Z,88.54
2023-02-03T12:54:34.240Z,91.48
2023-02-03T12:57:27.389Z,100.00
2023-02-03T13:00:04.798Z,100.00
2023-02-03T13:02:51.394Z,100.00
2023-02-03T13:05:24.812Z,100.00
2023-02-03T13:08:01.808Z,100.00
2023-02-03T13:10:39.683Z,100.00
2023-02-03T13:13:12.090Z,100.00
2023-02-03T13:15:43.867Z,100.00
2023-02-03T13:18:29.514Z,100.00
2023-02-03T13:20:56.303Z,100.00
2023-02-03T13:23:24.010Z,100.00
2023-02-03T13:25:56.659Z,100.00
2023-02-03T13:28:58.024Z,98.68
2023-02-03T13:31:33.435Z,88.22
2023-02-03T13:34:25.682Z,83.06
2023-02-03T13:37:12.340Z,80.70
2023-02-03T13:39:59.024Z,81.85
2023-02-03T13:42:31.740Z,83.75
2023-02-03T13:45:22.504Z,80.55
2023-02-03T13:47:52.598Z,81.14
2023-02-03T13:50:37.632Z,79.97
2023-02-03T13:53:08.036Z,77.02
2023-02-03T13:55:41.137Z,77.13
2023-02-03T13:58:23.808Z,76.13
2023-02-03T14:00:50.213Z,76.34
2023-02-03T14:03:25.519Z,76.64
2023-02-03T14:05:54.928Z,75.08
2023-02-03T14:08:27.594Z,75.77
2023-02-03T14:11:31.567Z,76.88
2023-02-03T14:14:06.927Z,74.69
2023-02-03T14:16:44.529Z,72.87
2023-02-03T14:19:13.774Z,77.08
2023-02-03T14:21:43.394Z,76.29
2023-02-03T14:24:12.444Z,74.68
2023-02-03T14:26:47.216Z,72.63
2023-02-03T14:29:27.371Z,72.62
2023-02-03T14:31:58.355Z,72.79
2023-02-03T14:34:31.617Z,73.69
2023-02-03T14:37:11.539Z,72.39
2023-02-03T14:39:57.801Z,72.29
2023-02-03T14:43:09.464Z,72.85
2023-02-03T14:45:58.670Z,72.82
2023-02-03T14:48:31.255Z,69.85
2023-02-03T14:51:06.451Z,69.76
2023-02-03T14:54:00.514Z,69.59
2023-02-03T14:56:53.357Z,68.99
2023-02-03T14:59:24.749Z,68.48
2023-02-03T15:01:52.002Z,68.66
2023-02-03T15:04:18.439Z,68.61
2023-02-03T15:06:47.823Z,68.16
2023-02-03T15:09:24.572Z,66.68
2023-02-03T15:11:51.052Z,66.64
2023-02-03T15:14:31.135Z,67.21
2023-02-03T15:17:12.889Z,68.47
2023-02-03T15:19:41.679Z,68.19
2023-02-03T15:22:26.667Z,68.77
2023-02-03T15:25:04.771Z,68.38
2023-02-03T15:27:32.927Z,66.62
2023-02-03T15:30:34.429Z,66.73
2023-02-03T15:33:09.384Z,66.30
2023-02-03T15:35:39.203Z,66.82
2023-02-03T15:38:12.610Z,67.31
2023-02-03T15:40:49.149Z,67.06
2023-02-03T15:43:42.008Z,66.88
2023-02-03T15:46:19.173Z,65.93
2023-02-03T15:48:58.646Z,67.03
2023-02-03T15:51:32.860Z,68.04
2023-02-03T15:54:06.286Z,67.82
2023-02-03T15:57:05.679Z,69.46
2023-02-03T15:59:35.782Z,69.58
2023-02-03T16:02:27.170Z,69.17
2023-02-03T16:04:54.525Z,68.14
2023-02-03T16:07:27.457Z,68.81
2023-02-03T16:09:55.950Z,67.67
2023-02-03T16:12:30.995Z,66.89
2023-02-03T16:14:59.601Z,67.84
2023-02-03T16:17:39.157Z,67.88
2023-02-03T16:20:11.981Z,66.28
2023-02-03T16:22:58.957Z,65.91
2023-02-03T16:25:32.170Z,65.56
2023-02-03T16:28:32.547Z,66.68
2023-02-03T16:31:23.783Z,68.06
2023-02-03T16:34:09.576Z,67.56
2023-02-03T16:36:59.992Z,68.22
2023-02-03T16:39:45.953Z,68.84
2023-02-03T16:42:36.378Z,70.04
2023-02-03T16:45:23.829Z,69.67
2023-02-03T16:48:09.040Z,69.72
2023-02-03T16:50:53.936Z,69.30
2023-02-03T16:53:23.246Z,69.15
2023-02-03T16:55:51.574Z,69.18
2023-02-03T16:58:18.126Z,70.43
2023-02-03T17:00:49.129Z,70.06
2023-02-03T17:03:19.100Z,70.72
2023-02-03T17:05:46.674Z,69.82
2023-02-03T17:08:15.039Z,71.28
2023-02-03T17:10:44.048Z,71.05
2023-02-03T17:13:11.748Z,69.91
2023-02-03T17:15:43.257Z,71.13
2023-02-03T17:18:10.230Z,71.24
2023-02-03T17:20:37.588Z,73.48
2023-02-03T17:23:04.168Z,73.80
2023-02-03T17:25:33.996Z,76.04
2023-02-03T17:28:00.622Z,77.71
2023-02-03T17:30:28.325Z,78.94
2023-02-03T17:32:55.509Z,79.12
2023-02-03T17:35:23.257Z,77.01
2023-02-03T17:37:49.713Z,77.08
2023-02-03T17:54:06.219Z,74.72
2023-02-03T17:56:35.695Z,75.15
2023-02-03T17:59:04.282Z,74.42
2023-02-03T18:01:32.313Z,74.00
2023-02-03T18:04:02.229Z,78.51
2023-02-03T18:06:30.524Z,81.65
2023-02-03T18:09:02.029Z,80.88
2023-02-03T18:11:30.297Z,88.58
2023-02-03T18:13:57.423Z,93.38
2023-02-03T18:16:28.918Z,94.73
2023-02-03T18:18:56.663Z,96.66
2023-02-03T18:21:25.150Z,97.06
2023-02-03T18:23:54.025Z,96.05
2023-02-03T18:26:20.851Z,94.75
2023-02-03T18:28:51.446Z,94.33
2023-02-03T18:31:18.159Z,94.33
2023-02-03T18:33:46.623Z,92.78
2023-02-03T18:36:14.816Z,91.60
2023-02-03T18:38:43.690Z,90.70
2023-02-03T18:41:20.857Z,89.20
2023-02-03T18:43:49.418Z,88.27
2023-02-03T18:46:29.267Z,88.13
2023-02-03T18:48:56.436Z,88.15
2023-02-03T18:51:24.446Z,88.93
2023-02-03T18:53:51.593Z,90.42
2023-02-03T18:56:21.361Z,93.38
2023-02-03T18:58:48.403Z,95.42
2023-02-03T19:01:31.244Z,97.31
2023-02-03T19:04:00.027Z,98.34
2023-02-03T19:06:29.911Z,100.00
2023-02-03T19:08:57.516Z,100.00
2023-02-03T19:11:24.206Z,100.00
2023-02-03T19:13:50.762Z,100.00
2023-02-03T19:16:17.886Z,100.00
2023-02-03T19:18:45.252Z,100.00
2023-02-03T19:21:13.120Z,100.00
2023-02-03T19:23:40.915Z,100.00
2023-02-03T19:26:08.369Z,100.00
2023-02-03T19:28:35.533Z,100.00
2023-02-03T19:31:08.765Z,100.00
2023-02-03T19:33:36.838Z,100.00
2023-02-03T19:36:07.505Z,100.00
2023-02-03T19:38:35.367Z,100.00
2023-02-03T19:41:02.512Z,100.00
2023-02-03T19:43:31.220Z,100.00
2023-02-03T19:45:58.514Z,100.00
2023-02-03T19:48:25.132Z,100.00
2023-02-03T19:50:51.608Z,100.00
2023-02-03T19:53:19.176Z,100.00
2023-02-03T19:55:46.462Z,100.00
2023-02-03T19:58:14.037Z,100.00
2023-02-03T20:00:41.582Z,100.00
2023-02-03T20:03:08.857Z,100.00
2023-02-03T20:05:36.314Z,100.00
2023-02-03T20:08:03.480Z,100.00
2023-02-03T20:10:30.645Z,100.00
2023-02-03T20:12:57.272Z,100.00
2023-02-03T20:15:23.810Z,100.00
2023-02-03T20:17:50.342Z,100.00
2023-02-03T20:20:19.785Z,100.00
2023-02-03T20:22:47.546Z,100.00
2023-02-03T20:25:14.634Z,100.00
2023-02-03T20:27:41.818Z,100.00
2023-02-03T20:30:08.900Z,100.00
2023-02-03T20:32:36.237Z,100.00
2023-02-03T20:35:04.574Z,100.00
2023-02-03T20:37:31.136Z,100.00
2023-02-03T20:39:57.960Z,100.00
2023-02-03T20:42:24.633Z,100.00
2023-02-03T20:44:51.441Z,100.00
2023-02-03T20:47:19.024Z,100.00
2023-02-03T20:49:47.924Z,100.00
2023-02-03T20:52:17.449Z,100.00
2023-02-03T20:54:44.343Z,100.00
2023-02-03T20:57:18.648Z,100.00
2023-02-03T20:59:46.151Z,100.00
2023-02-03T21:02:31.000Z,100.00
2023-02-03T21:04:59.058Z,100.00
2023-02-03T21:07:30.759Z,100.00
2023-02-03T21:09:59.975Z,100.00
2023-02-03T21:12:29.616Z,100.00
2023-02-03T21:14:57.213Z,100.00
2023-02-03T21:17:27.416Z,100.00
2023-02-03T21:19:55.104Z,100.00
2023-02-03T21:22:23.973Z,100.00
2023-02-03T21:25:01.294Z,100.00
2023-02-03T21:27:29.014Z,100.00
2023-02-03T21:30:00.542Z,100.00
2023-02-03T21:32:38.513Z,100.00
2023-02-03T21:35:24.713Z,100.00
2023-02-03T21:38:01.908Z,100.00
2023-02-03T21:40:30.048Z,100.00
2023-02-03T21:42:57.860Z,100.00
2023-02-03T21:45:28.541Z,100.00
2023-02-03T21:47:58.527Z,100.00
2023-02-03T21:50:44.315Z,100.00
2023-02-03T21:53:10.732Z,100.00
2023-02-03T21:55:39.274Z,100.00
2023-02-03T21:58:32.509Z,100.00
2023-02-03T22:01:02.184Z,100.00
2023-02-03T22:03:36.057Z,100.00
2023-02-03T22:06:10.812Z,100.00
2023-02-03T22:08:42.725Z,100.00
2023-02-03T22:11:09.589Z,100.00
2023-02-03T22:13:36.855Z,100.00
2023-02-03T22:16:04.102Z,100.00
2023-02-03T22:18:31.158Z,100.00
2023-02-03T22:20:58.075Z,100.00
2023-02-03T22:23:24.830Z,100.00
2023-02-03T22:25:51.458Z,100.00
2023-02-03T22:28:18.097Z,100.00
2023-02-03T22:30:44.658Z,100.00
2023-02-03T22:33:11.282Z,100.00
2023-02-03T22:35:37.995Z,100.00
2023-02-03T22:38:04.532Z,100.00
2023-02-03T22:40:31.409Z,100.00
2023-02-03T22:42:58.386Z,100.00
2023-02-03T22:45:25.146Z,100.00
2023-02-03T22:47:51.695Z,100.00
2023-02-03T22:50:24.662Z,100.00
2023-02-03T22:52:59.040Z,100.00
2023-02-03T22:55:25.722Z,100.00
2023-02-03T22:57:52.589Z,100.00
2023-02-03T23:00:21.565Z,100.00
2023-02-03T23:02:48.516Z,100.00
2023-02-03T23:05:15.488Z,100.00
2023-02-03T23:07:42.190Z,100.00
2023-02-03T23:10:13.413Z,100.00
2023-02-03T23:12:41.017Z,100.00
2023-02-03T23:15:09.589Z,100.00
2023-02-03T23:17:36.610Z,100.00
2023-02-03T23:20:04.873Z,100.00
2023-02-03T23:22:31.393Z,100.00
2023-02-03T23:24:57.980Z,100.00
2023-02-03T23:27:24.661Z,100.00
2023-02-03T23:29:51.722Z,100.00
2023-02-03T23:32:18.274Z,100.00
2023-02-03T23:35:03.486Z,100.00
2023-02-03T23:37:30.006Z,100.00
2023-02-03T23:39:56.515Z,100.00
2023-02-03T23:42:23.079Z,100.00
2023-02-03T23:44:49.629Z,100.00
2023-02-03T23:47:16.162Z,100.00
2023-02-03T23:49:42.598Z,100.00
2023-02-03T23:52:09.222Z,100.00
2023-02-03T23:54:35.685Z,100.00
2023-02-03T23:57:02.510Z,100.00
2023-02-03T23:59:28.981Z,100.00
